createdAt,value
2022-12-18T00:05:09.508Z,46
2022-12-18T00:34:28.857Z,44
2022-12-18T01:03:46.629Z,44
2022-12-18T01:33:03.930Z,45
2022-12-18T02:02:23.645Z,43
2022-12-18T02:31:31.098Z,43
2022-12-18T03:00:40.891Z,40
2022-12-18T03:29:49.352Z,38
2022-12-18T03:58:52.844Z,40
2022-12-18T04:28:00.363Z,38
2022-12-18T04:57:15.930Z,37
2022-12-18T05:25:56.813Z,35
2022-12-18T05:55:00.889Z,38
2022-12-18T06:24:16.919Z,37
2022-12-18T06:53:02.736Z,38
2022-12-18T07:21:54.538Z,40
2022-12-18T07:51:02.938Z,36
2022-12-18T08:20:12.860Z,38
2022-12-18T08:49:18.146Z,40
2022-12-18T09:18:26.997Z,39
2022-12-18T09:47:34.166Z,44
2022-12-18T10:16:45.725Z,49
2022-12-18T10:45:56.767Z,46
2022-12-18T11:14:47.829Z,46
2022-12-18T11:43:48.527Z,46
2022-12-18T12:13:00.550Z,46
2022-12-18T12:42:10.784Z,49
2022-12-18T13:10:58.826Z,52
2022-12-18T13:40:02.680Z,62
2022-12-18T14:09:13.400Z,57
2022-12-18T14:37:58.791Z,56
2022-12-18T15:07:10.496Z,52
2022-12-18T15:36:26.663Z,57
2022-12-18T16:05:03.159Z,62
2022-12-18T16:34:10.513Z,60
2022-12-18T17:03:14.072Z,68
2022-12-18T17:32:01.825Z,62
2022-12-18T18:01:05.513Z,72
2022-12-18T18:29:58.812Z,69
2022-12-18T18:59:09.665Z,59
2022-12-18T19:28:22.620Z,62
2022-12-18T19:57:06.520Z,68
2022-12-18T20:25:54.140Z,70
2022-12-18T20:54:57.845Z,72
2022-12-18T21:23:43.897Z,72
2022-12-18T21:52:53.286Z,68
2022-12-18T22:22:06.771Z,70
2022-12-18T22:51:07.489Z,78
2022-12-18T23:20:11.045Z,73
2022-12-18T23:49:02.274Z,69
